Time;durP1;ratioP1;P1;durP2;ratioP2;P2;SDS_P1;SDS_P2;PMS_P1;PMS_P2;Temp;Humidity;BMP_temperature;BMP_pressure;BME280_temperature;BME280_humidity;BME280_pressure;Samples;Min_cycle;Max_cycle;Signal;HPM_P1;HPM_P2
2023/10/13 00:01:33;;;;;;;9.32;3.67;;;;;;;;;;5053870;28;19909;-76
2023/10/13 00:03:58;;;;;;;9.60;3.90;;;;;;;;;;5054998;28;20431;-76
2023/10/13 00:06:26;;;;;;;8.02;3.83;;;;;;;;;;5055101;28;20020;-76
2023/10/13 00:08:52;;;;;;;7.78;3.97;;;;;;;;;;5054978;28;20035;-76
2023/10/13 00:11:18;;;;;;;15.27;4.22;;;;;;;;;;5055095;28;20028;-76
2023/10/13 00:13:50;;;;;;;8.75;4.10;;;;;;;;;;5053495;28;20557;-76
2023/10/13 00:16:22;;;;;;;8.55;3.90;;;;;;;;;;5055110;28;20037;-76
2023/10/13 00:18:54;;;;;;;7.28;4.25;;;;;;;;;;5053586;28;20492;-76
2023/10/13 00:21:30;;;;;;;10.77;4.18;;;;;;;;;;5053552;28;20029;-76
2023/10/13 00:23:56;;;;;;;6.95;4.13;;;;;;;;;;5055275;28;20511;-76
2023/10/13 00:26:28;;;;;;;8.38;3.95;;;;;;;;;;5055336;28;20053;-76
2023/10/13 00:31:42;;;;;;;7.13;3.75;;;;;;;;;;5055229;28;20021;-76
2023/10/13 00:36:36;;;;;;;8.00;3.85;;;;;;;;;;5054624;28;20470;-76
2023/10/13 00:39:03;;;;;;;7.20;4.00;;;;;;;;;;5055039;28;20032;-76
2023/10/13 00:41:51;;;;;;;9.38;4.38;;;;;;;;;;5055082;28;20025;-76
2023/10/13 00:44:16;;;;;;;8.63;4.20;;;;;;;;;;5055003;28;20165;-76
2023/10/13 00:46:44;;;;;;;9.18;4.22;;;;;;;;;;5054658;28;20054;-76
2023/10/13 00:49:10;;;;;;;11.00;4.22;;;;;;;;;;5054745;28;20031;-75
2023/10/13 00:51:40;;;;;;;8.82;4.13;;;;;;;;;;5053322;28;20119;-76
2023/10/13 00:54:10;;;;;;;8.68;3.75;;;;;;;;;;5053253;28;20120;-76
2023/10/13 00:56:43;;;;;;;9.88;4.00;;;;;;;;;;5055005;28;20017;-76
2023/10/13 00:59:09;;;;;;;11.32;4.28;;;;;;;;;;5054537;28;20037;-76
2023/10/13 01:01:36;;;;;;;11.30;4.22;;;;;;;;;;5054936;28;20032;-76
2023/10/13 01:04:04;;;;;;;9.25;3.92;;;;;;;;;;5054299;28;20363;-76
2023/10/13 01:06:31;;;;;;;10.40;3.90;;;;;;;;;;5054295;28;20017;-76
2023/10/13 01:09:16;;;;;;;9.43;4.20;;;;;;;;;;5052939;28;20115;-76
2023/10/13 01:11:52;;;;;;;8.60;3.78;;;;;;;;;;5053021;28;20020;-76
2023/10/13 01:14:20;;;;;;;5.60;3.55;;;;;;;;;;5054182;28;20116;-76
2023/10/13 01:16:46;;;;;;;9.45;3.97;;;;;;;;;;5054385;28;20052;-76
2023/10/13 01:19:19;;;;;;;9.65;4.25;;;;;;;;;;5052839;28;20033;-76
2023/10/13 01:21:47;;;;;;;6.93;4.18;;;;;;;;;;5054496;28;20090;-76
2023/10/13 01:24:13;;;;;;;7.90;3.63;;;;;;;;;;5052684;28;20171;-76
2023/10/13 01:26:39;;;;;;;10.77;4.10;;;;;;;;;;5052680;28;20116;-76
2023/10/13 01:29:12;;;;;;;8.63;3.70;;;;;;;;;;5053891;28;20082;-76
2023/10/13 01:31:47;;;;;;;7.57;3.70;;;;;;;;;;5054116;28;20029;-76
2023/10/13 01:34:19;;;;;;;8.15;3.85;;;;;;;;;;5053872;28;20032;-76
2023/10/13 01:36:45;;;;;;;8.55;3.95;;;;;;;;;;5053531;28;20025;-76
2023/10/13 01:39:10;;;;;;;7.95;3.90;;;;;;;;;;5053950;28;20029;-76
2023/10/13 01:41:38;;;;;;;7.70;3.85;;;;;;;;;;5053134;28;20032;-76
2023/10/13 01:44:04;;;;;;;7.03;4.00;;;;;;;;;;5053477;28;20099;-76
2023/10/13 01:46:29;;;;;;;11.52;3.75;;;;;;;;;;5052223;28;20048;-75
2023/10/13 01:48:56;;;;;;;5.45;3.67;;;;;;;;;;5053578;28;20547;-76
2023/10/13 01:51:28;;;;;;;11.75;3.97;;;;;;;;;;5053430;28;20484;-76
2023/10/13 01:53:56;;;;;;;7.10;4.10;;;;;;;;;;5053401;28;20025;-76
2023/10/13 01:56:23;;;;;;;6.55;3.78;;;;;;;;;;5053345;28;20060;-76
2023/10/13 01:58:48;;;;;;;8.18;3.75;;;;;;;;;;5053312;28;20033;-76
2023/10/13 02:01:13;;;;;;;11.18;4.10;;;;;;;;;;5053293;28;20048;-76
2023/10/13 02:03:46;;;;;;;9.77;3.80;;;;;;;;;;5051916;28;20538;-76
2023/10/13 02:06:17;;;;;;;10.67;3.93;;;;;;;;;;5053543;28;20095;-76
2023/10/13 02:08:44;;;;;;;10.02;3.58;;;;;;;;;;5053389;28;20028;-76
2023/10/13 02:11:10;;;;;;;7.25;4.07;;;;;;;;;;5053205;28;20176;-76
2023/10/13 02:13:48;;;;;;;6.00;3.85;;;;;;;;;;5051740;28;20369;-76
2023/10/13 02:16:18;;;;;;;9.32;4.30;;;;;;;;;;5053474;28;20029;-74
2023/10/13 02:18:43;;;;;;;8.27;4.45;;;;;;;;;;5053052;28;20102;-76
2023/10/13 02:21:14;;;;;;;10.18;3.47;;;;;;;;;;5052968;28;20480;-77
2023/10/13 02:23:59;;;;;;;8.70;4.38;;;;;;;;;;5053212;28;20107;-76
2023/10/13 02:26:30;;;;;;;7.90;4.07;;;;;;;;;;5051654;28;20353;-76
2023/10/13 02:28:57;;;;;;;7.68;4.45;;;;;;;;;;5053139;28;20506;-76
2023/10/13 02:31:24;;;;;;;8.82;4.50;;;;;;;;;;5053141;28;20033;-76
2023/10/13 02:33:49;;;;;;;10.63;4.13;;;;;;;;;;5052779;28;20580;-76
2023/10/13 02:36:22;;;;;;;10.10;4.20;;;;;;;;;;5052779;28;20119;-76
2023/10/13 02:38:47;;;;;;;12.10;4.35;;;;;;;;;;5052742;28;20556;-76
2023/10/13 02:41:25;;;;;;;11.20;4.43;;;;;;;;;;5052706;28;20039;-76
2023/10/13 02:43:50;;;;;;;11.00;3.90;;;;;;;;;;5052821;28;20099;-76
2023/10/13 02:46:16;;;;;;;10.07;4.20;;;;;;;;;;5052684;28;20029;-76
2023/10/13 02:48:42;;;;;;;10.75;3.80;;;;;;;;;;5052975;28;20269;-76
2023/10/13 02:51:18;;;;;;;7.63;3.70;;;;;;;;;;5051478;28;20404;-76
2023/10/13 02:53:52;;;;;;;6.78;3.90;;;;;;;;;;5055141;28;20029;-76
2023/10/13 02:56:20;;;;;;;8.05;3.78;;;;;;;;;;5056951;28;20029;-76
2023/10/13 02:59:08;;;;;;;8.20;3.83;;;;;;;;;;5056662;28;20545;-76
2023/10/13 03:01:34;;;;;;;9.13;3.55;;;;;;;;;;5056708;28;20028;-76
2023/10/13 03:04:01;;;;;;;10.63;3.80;;;;;;;;;;5056543;28;20484;-76
2023/10/13 03:06:33;;;;;;;7.57;4.00;;;;;;;;;;5056594;28;20036;-76
2023/10/13 03:09:13;;;;;;;6.50;3.78;;;;;;;;;;5056670;28;20024;-76
2023/10/13 03:11:39;;;;;;;7.75;3.65;;;;;;;;;;5055244;28;20115;-76
2023/10/13 03:14:07;;;;;;;10.02;4.00;;;;;;;;;;5056641;28;20029;-76
2023/10/13 03:16:32;;;;;;;7.20;3.60;;;;;;;;;;5056266;28;20033;-76
2023/10/13 03:18:57;;;;;;;8.20;3.47;;;;;;;;;;5056351;28;20395;-76
2023/10/13 03:21:29;;;;;;;6.70;3.90;;;;;;;;;;5056347;28;20021;-76
2023/10/13 03:23:56;;;;;;;13.18;3.97;;;;;;;;;;5056291;28;20265;-76
2023/10/13 03:26:21;;;;;;;6.60;3.58;;;;;;;;;;5056453;28;20120;-76
2023/10/13 03:28:52;;;;;;;7.82;3.38;;;;;;;;;;5056226;28;20524;-76
2023/10/13 03:31:19;;;;;;;8.70;3.75;;;;;;;;;;5056170;28;20396;-76
2023/10/13 03:33:46;;;;;;;6.47;3.30;;;;;;;;;;5056082;28;20032;-76
2023/10/13 03:36:34;;;;;;;6.07;3.20;;;;;;;;;;5056151;28;20039;-76
2023/10/13 03:38:56;;;;;;;6.65;3.63;;;;;;;;;;5055902;28;20032;-76
2023/10/13 03:41:24;;;;;;;7.80;3.58;;;;;;;;;;5055914;28;20040;-76
2023/10/13 03:44:07;;;;;;;6.78;3.78;;;;;;;;;;5056174;28;20074;-76
2023/10/13 03:46:33;;;;;;;8.82;3.80;;;;;;;;;;5056168;28;20028;-75
2023/10/13 03:49:01;;;;;;;6.63;3.53;;;;;;;;;;5054643;28;20021;-76
2023/10/13 03:51:31;;;;;;;9.60;3.78;;;;;;;;;;5055730;28;20491;-76
2023/10/13 03:53:56;;;;;;;8.60;3.88;;;;;;;;;;5055945;28;20086;-76
2023/10/13 03:56:38;;;;;;;7.38;3.55;;;;;;;;;;5054377;28;20080;-76
2023/10/13 03:59:06;;;;;;;6.82;3.30;;;;;;;;;;5055708;28;20052;-76
2023/10/13 04:01:36;;;;;;;4.93;3.40;;;;;;;;;;5055870;28;20056;-76
2023/10/13 04:04:10;;;;;;;7.25;2.90;;;;;;;;;;5055403;28;20104;-76
2023/10/13 04:17:14;;;;;;;5.47;3.08;;;;;;;;;;5055642;28;20495;-76
2023/10/13 04:20:12;;;;;;;5.28;3.45;;;;;;;;;;5053787;28;20029;-76
2023/10/13 04:23:17;;;;;;;6.45;3.53;;;;;;;;;;5054985;28;20024;-76
2023/10/13 04:33:35;;;;;;;8.43;3.63;;;;;;;;;;5055316;28;20025;-76
2023/10/13 04:38:59;;;;;;;7.18;3.53;;;;;;;;;;5055363;28;20037;-76
2023/10/13 04:41:42;;;;;;;8.35;4.22;;;;;;;;;;5053518;28;20464;-76
2023/10/13 04:44:47;;;;;;;7.90;3.25;;;;;;;;;;5054779;28;20083;-76
2023/10/13 04:47:16;;;;;;;7.28;3.60;;;;;;;;;;5054514;28;20364;-76
2023/10/13 04:52:26;;;;;;;9.13;4.20;;;;;;;;;;5055129;28;20052;-76
2023/10/13 04:54:55;;;;;;;8.75;3.55;;;;;;;;;;5054970;28;20067;-76
2023/10/13 04:57:46;;;;;;;9.13;3.72;;;;;;;;;;5054478;28;20035;-76
2023/10/13 05:03:40;;;;;;;5.60;3.42;;;;;;;;;;5054468;28;20035;-76
2023/10/13 06:29:49;;;;;;;8.25;3.20;;;;;;;;;;5052880;28;20032;-76
2023/10/13 06:32:16;;;;;;;6.72;3.25;;;;;;;;;;5052770;28;20029;-76
2023/10/13 06:34:44;;;;;;;7.90;3.95;;;;;;;;;;5051585;28;20021;-76
2023/10/13 06:37:22;;;;;;;5.07;3.95;;;;;;;;;;5051323;28;20079;-76
2023/10/13 06:39:49;;;;;;;8.38;4.70;;;;;;;;;;5051810;28;20056;-76
2023/10/13 06:42:16;;;;;;;8.05;5.30;;;;;;;;;;5052672;28;20024;-76
2023/10/13 06:44:45;;;;;;;12.98;5.53;;;;;;;;;;5052834;28;20100;-76
2023/10/13 06:47:11;;;;;;;13.15;6.20;;;;;;;;;;5052712;28;20586;-76
2023/10/13 06:49:38;;;;;;;8.80;5.75;;;;;;;;;;5051396;28;20036;-76
2023/10/13 06:52:10;;;;;;;13.80;6.43;;;;;;;;;;5051249;28;20024;-76
2023/10/13 06:54:39;;;;;;;9.90;6.60;;;;;;;;;;5051407;28;20020;-76
2023/10/13 06:57:10;;;;;;;12.05;6.75;;;;;;;;;;5052688;28;20087;-78
2023/10/13 06:59:40;;;;;;;12.15;7.28;;;;;;;;;;5051227;28;20021;-75
2023/10/13 07:02:06;;;;;;;13.93;7.53;;;;;;;;;;5052186;28;20036;-74
2023/10/13 07:04:32;;;;;;;10.82;7.80;;;;;;;;;;5052639;28;20040;-75
2023/10/13 07:07:00;;;;;;;18.35;8.05;;;;;;;;;;5052973;28;20017;-75
2023/10/13 07:12:02;;;;;;;12.65;7.90;;;;;;;;;;5052346;28;20419;-75
2023/10/13 07:14:27;;;;;;;12.15;7.82;;;;;;;;;;5052368;28;20021;-75
2023/10/13 07:17:02;;;;;;;14.52;8.25;;;;;;;;;;5050973;28;20032;-75
2023/10/13 07:19:30;;;;;;;12.95;7.68;;;;;;;;;;5052362;28;20029;-75
2023/10/13 07:22:03;;;;;;;13.32;8.32;;;;;;;;;;5052260;28;20108;-75
2023/10/13 07:24:31;;;;;;;13.20;7.65;;;;;;;;;;5051134;28;20501;-75
2023/10/13 07:27:03;;;;;;;11.68;8.23;;;;;;;;;;5051692;28;20116;-75
2023/10/13 07:29:29;;;;;;;14.38;8.70;;;;;;;;;;5052293;28;20020;-75
2023/10/13 07:31:54;;;;;;;12.98;8.40;;;;;;;;;;5050792;28;20031;-75
2023/10/13 07:34:31;;;;;;;15.87;8.50;;;;;;;;;;5052161;28;20383;-76
2023/10/13 07:37:00;;;;;;;13.98;8.10;;;;;;;;;;5052025;28;20278;-76
2023/10/13 07:39:33;;;;;;;15.80;8.60;;;;;;;;;;5052445;28;20099;-75
2023/10/13 07:42:05;;;;;;;12.45;8.43;;;;;;;;;;5056059;28;20052;-75
2023/10/13 07:44:36;;;;;;;11.40;8.15;;;;;;;;;;5055812;28;20075;-76
2023/10/13 07:47:03;;;;;;;15.68;8.07;;;;;;;;;;5055924;28;20071;-75
2023/10/13 07:49:30;;;;;;;11.50;7.43;;;;;;;;;;5054442;28;20021;-76
2023/10/13 07:54:49;;;;;;;10.05;7.57;;;;;;;;;;5055872;28;20391;-76
2023/10/13 07:57:17;;;;;;;13.82;7.40;;;;;;;;;;5055635;28;20454;-75
2023/10/13 07:59:52;;;;;;;11.30;7.03;;;;;;;;;;5054342;28;20047;-75
2023/10/13 08:02:47;;;;;;;10.48;6.95;;;;;;;;;;5054057;28;20025;-75
2023/10/13 08:05:16;;;;;;;11.07;6.95;;;;;;;;;;5055385;28;20031;-75
2023/10/13 08:07:41;;;;;;;11.30;6.07;;;;;;;;;;5055426;28;20441;-76
2023/10/13 08:10:10;;;;;;;15.40;6.50;;;;;;;;;;5053927;28;20109;-75
2023/10/13 08:12:37;;;;;;;14.50;6.38;;;;;;;;;;5053466;28;20254;-75
2023/10/13 08:15:11;;;;;;;10.20;6.13;;;;;;;;;;5054990;28;20403;-75
2023/10/13 08:17:37;;;;;;;9.63;6.22;;;;;;;;;;5055176;28;20033;-76
2023/10/13 08:20:11;;;;;;;10.05;5.75;;;;;;;;;;5053857;28;20399;-76
2023/10/13 08:22:38;;;;;;;8.38;5.57;;;;;;;;;;5055095;28;20025;-75
2023/10/13 08:26:13;;;;;;;10.07;5.30;;;;;;;;;;5055363;28;20028;-76
2023/10/13 08:30:52;;;;;;;7.57;5.32;;;;;;;;;;5055177;28;20502;-76
2023/10/13 08:33:17;;;;;;;8.02;5.50;;;;;;;;;;5054987;28;20025;-76
2023/10/13 08:35:54;;;;;;;11.23;5.72;;;;;;;;;;5054834;28;20032;-76
2023/10/13 08:38:28;;;;;;;11.30;5.53;;;;;;;;;;5054871;28;20021;-75
2023/10/13 08:43:50;;;;;;;6.63;4.97;;;;;;;;;;5054813;28;20028;-76
2023/10/13 08:46:25;;;;;;;7.35;3.72;;;;;;;;;;5054775;28;20029;-75
2023/10/13 08:49:06;;;;;;;7.60;3.80;;;;;;;;;;5054722;28;20563;-75
2023/10/13 08:51:43;;;;;;;6.55;3.60;;;;;;;;;;5054687;28;20025;-76
2023/10/13 08:54:19;;;;;;;5.85;3.20;;;;;;;;;;5053211;28;20403;-75
2023/10/13 08:56:56;;;;;;;5.22;3.30;;;;;;;;;;5054503;28;20100;-76
2023/10/13 08:59:38;;;;;;;6.35;3.30;;;;;;;;;;5055444;28;20479;-75
2023/10/13 09:02:17;;;;;;;8.27;3.55;;;;;;;;;;5053709;28;20040;-75
2023/10/13 09:04:44;;;;;;;4.05;2.95;;;;;;;;;;5054732;28;20029;-75
2023/10/13 09:07:15;;;;;;;7.38;3.28;;;;;;;;;;5054949;28;20508;-76
2023/10/13 09:09:58;;;;;;;7.47;3.20;;;;;;;;;;5054994;28;20419;-75
2023/10/13 09:14:57;;;;;;;5.88;3.60;;;;;;;;;;5054679;28;20025;-75
2023/10/13 09:19:59;;;;;;;5.97;3.30;;;;;;;;;;5054661;28;20052;-76
2023/10/13 09:22:36;;;;;;;8.80;3.08;;;;;;;;;;5054173;28;20028;-76
2023/10/13 09:25:05;;;;;;;5.18;2.40;;;;;;;;;;5052771;28;20025;-75
2023/10/13 09:27:37;;;;;;;4.13;2.13;;;;;;;;;;5054092;28;20017;-76
2023/10/13 09:30:18;;;;;;;4.15;2.80;;;;;;;;;;5054171;28;20086;-76
2023/10/13 09:32:46;;;;;;;7.47;2.58;;;;;;;;;;5053952;28;20074;-76
2023/10/13 09:35:16;;;;;;;7.03;2.53;;;;;;;;;;5053957;28;20033;-75
2023/10/13 09:37:46;;;;;;;4.65;2.80;;;;;;;;;;5053572;28;20066;-75
2023/10/13 09:40:33;;;;;;;5.88;2.70;;;;;;;;;;5053818;28;20021;-76
2023/10/13 09:43:05;;;;;;;5.18;2.80;;;;;;;;;;5053904;28;20032;-76
2023/10/13 09:45:43;;;;;;;7.30;3.42;;;;;;;;;;5053714;28;20039;-75
2023/10/13 09:48:21;;;;;;;5.40;3.60;;;;;;;;;;5053778;28;20060;-75
2023/10/13 09:50:48;;;;;;;4.47;3.42;;;;;;;;;;5053861;28;20554;-75
2023/10/13 09:53:18;;;;;;;6.70;4.95;;;;;;;;;;5052107;28;20502;-75
2023/10/13 09:55:54;;;;;;;9.43;5.40;;;;;;;;;;5053547;28;20028;-76
2023/10/13 09:58:28;;;;;;;9.65;6.10;;;;;;;;;;5053641;28;20025;-76
2023/10/13 10:01:10;;;;;;;15.00;7.13;;;;;;;;;;5053677;28;20064;-76
2023/10/13 10:03:50;;;;;;;11.90;7.38;;;;;;;;;;5052727;28;20033;-75
2023/10/13 10:06:28;;;;;;;9.80;7.57;;;;;;;;;;5053387;28;20037;-76
2023/10/13 10:09:10;;;;;;;18.05;7.68;;;;;;;;;;5053320;28;20082;-75
2023/10/13 10:12:00;;;;;;;12.43;7.97;;;;;;;;;;5053577;28;20028;-75
2023/10/13 10:15:01;;;;;;;11.27;8.25;;;;;;;;;;5053421;28;20395;-76
2023/10/13 10:17:29;;;;;;;14.32;8.50;;;;;;;;;;5053425;28;20025;-76
2023/10/13 10:19:56;;;;;;;11.73;8.25;;;;;;;;;;5053144;28;20025;-76
2023/10/13 10:22:38;;;;;;;11.48;8.48;;;;;;;;;;5053044;28;20028;-75
2023/10/13 10:25:24;;;;;;;14.45;8.35;;;;;;;;;;5051729;28;20045;-76
2023/10/13 10:27:56;;;;;;;14.15;8.95;;;;;;;;;;5053167;28;20028;-75
2023/10/13 10:30:26;;;;;;;13.77;9.10;;;;;;;;;;5053263;28;20024;-75
2023/10/13 10:33:06;;;;;;;14.27;9.63;;;;;;;;;;5053354;28;20024;-75
2023/10/13 10:35:32;;;;;;;13.88;8.75;;;;;;;;;;5053038;28;20043;-75
2023/10/13 10:41:05;;;;;;;17.58;8.25;;;;;;;;;;5053464;28;20025;-76
2023/10/13 10:43:42;;;;;;;16.17;9.25;;;;;;;;;;5051473;28;20029;-75
2023/10/13 10:46:12;;;;;;;15.05;8.25;;;;;;;;;;5052745;28;20056;-75
2023/10/13 10:48:42;;;;;;;14.15;8.55;;;;;;;;;;5051528;28;20495;-75
2023/10/13 10:51:57;;;;;;;13.02;8.88;;;;;;;;;;5053075;28;20028;-76
2023/10/13 10:53:56;;;;;;;16.98;8.80;;;;;;;;;;5051998;28;20040;-76
2023/10/13 10:56:25;;;;;;;20.55;8.50;;;;;;;;;;5052691;28;20017;-75
2023/10/13 10:58:59;;;;;;;21.17;8.88;;;;;;;;;;5051262;28;20388;-76
2023/10/13 11:01:43;;;;;;;11.82;7.88;;;;;;;;;;5052533;28;20100;-75
2023/10/13 11:04:14;;;;;;;14.15;7.60;;;;;;;;;;5052629;28;20028;-76
2023/10/13 11:06:45;;;;;;;14.88;7.93;;;;;;;;;;5052526;28;20032;-75
2023/10/13 11:11:52;;;;;;;14.80;7.78;;;;;;;;;;5052759;28;20029;-75
2023/10/13 11:14:28;;;;;;;13.45;7.18;;;;;;;;;;5054103;28;20025;-76
2023/10/13 11:16:59;;;;;;;10.60;7.22;;;;;;;;;;5056338;28;20035;-75
2023/10/13 11:19:36;;;;;;;13.43;6.85;;;;;;;;;;5056780;28;20074;-76
2023/10/13 11:22:35;;;;;;;12.70;6.53;;;;;;;;;;5055090;28;20029;-75
2023/10/13 11:25:14;;;;;;;16.38;6.78;;;;;;;;;;5056588;28;20028;-75
2023/10/13 11:27:44;;;;;;;11.27;6.22;;;;;;;;;;5056284;28;20026;-76
2023/10/13 11:30:14;;;;;;;14.68;5.65;;;;;;;;;;5056471;28;20021;-75
2023/10/13 11:32:41;;;;;;;9.00;6.10;;;;;;;;;;5055107;28;20396;-75
2023/10/13 11:35:11;;;;;;;12.05;6.25;;;;;;;;;;5056450;28;20388;-76
2023/10/13 11:37:43;;;;;;;9.93;5.80;;;;;;;;;;5055877;28;20026;-74
2023/10/13 11:40:12;;;;;;;9.70;6.32;;;;;;;;;;5056428;28;20024;-76
2023/10/13 11:42:43;;;;;;;7.95;5.78;;;;;;;;;;5055847;28;20020;-76
2023/10/13 11:45:29;;;;;;;15.20;6.18;;;;;;;;;;5056024;28;20052;-75
2023/10/13 11:48:00;;;;;;;14.45;6.35;;;;;;;;;;5056156;28;20021;-76
2023/10/13 11:50:33;;;;;;;11.35;6.68;;;;;;;;;;5056109;28;20029;-76
2023/10/13 11:53:00;;;;;;;10.40;6.00;;;;;;;;;;5055723;28;20024;-75
2023/10/13 11:55:25;;;;;;;12.13;5.43;;;;;;;;;;5054480;28;20025;-75
2023/10/13 11:57:51;;;;;;;16.17;5.15;;;;;;;;;;5055982;28;20522;-76
2023/10/13 12:00:44;;;;;;;10.63;5.65;;;;;;;;;;5055679;28;20075;-76
2023/10/13 12:05:59;;;;;;;12.90;4.53;;;;;;;;;;5055861;28;20039;-75
2023/10/13 12:08:32;;;;;;;11.02;4.25;;;;;;;;;;5055889;28;20044;-75
2023/10/13 12:11:30;;;;;;;13.63;4.68;;;;;;;;;;5055630;28;20391;-75
2023/10/13 12:13:46;;;;;;;11.02;4.25;;;;;;;;;;5055230;28;20470;-75
2023/10/13 12:16:12;;;;;;;10.68;4.30;;;;;;;;;;5055407;28;20048;-75
2023/10/13 12:18:38;;;;;;;11.18;5.22;;;;;;;;;;5055262;28;20053;-75
2023/10/13 12:21:09;;;;;;;9.60;4.60;;;;;;;;;;5055250;28;20059;-75
2023/10/13 12:23:36;;;;;;;7.93;4.38;;;;;;;;;;5055348;28;20029;-74
2023/10/13 12:26:06;;;;;;;11.75;4.78;;;;;;;;;;5053570;28;20048;-75
2023/10/13 12:28:37;;;;;;;11.02;4.45;;;;;;;;;;5055135;28;20027;-75
2023/10/13 12:31:06;;;;;;;14.35;4.70;;;;;;;;;;5053976;28;20071;-75
2023/10/13 12:33:40;;;;;;;9.52;4.47;;;;;;;;;;5055054;28;20027;-75
2023/10/13 12:52:16;;;;;;;11.93;3.85;;;;;;;;;;5054941;28;19909;-75
2023/10/13 12:57:23;;;;;;;10.77;3.88;;;;;;;;;;5054902;28;20025;-75
2023/10/13 12:59:49;;;;;;;12.93;4.07;;;;;;;;;;5054576;28;20036;-75
2023/10/13 13:02:17;;;;;;;12.43;3.88;;;;;;;;;;5053008;28;20029;-75
2023/10/13 13:04:48;;;;;;;15.45;4.38;;;;;;;;;;5054529;28;20024;-75
2023/10/13 13:07:13;;;;;;;12.85;4.35;;;;;;;;;;5054677;28;20025;-75
2023/10/13 13:09:41;;;;;;;9.70;4.00;;;;;;;;;;5053114;28;20029;-75
2023/10/13 13:12:12;;;;;;;14.57;3.92;;;;;;;;;;5054335;28;20024;-75
2023/10/13 13:14:40;;;;;;;8.50;3.75;;;;;;;;;;5054592;28;20147;-75
2023/10/13 13:17:05;;;;;;;9.80;3.42;;;;;;;;;;5052957;28;20045;-75
2023/10/13 13:19:34;;;;;;;11.70;3.55;;;;;;;;;;5054535;28;20036;-75
2023/10/13 13:21:59;;;;;;;14.60;3.92;;;;;;;;;;5054100;28;20049;-74
2023/10/13 13:24:26;;;;;;;8.80;3.83;;;;;;;;;;5054395;28;20024;-75
2023/10/13 13:26:55;;;;;;;7.65;3.67;;;;;;;;;;5054164;28;20737;-75
2023/10/13 13:29:20;;;;;;;8.70;3.80;;;;;;;;;;5053983;28;20109;-76
2023/10/13 13:31:46;;;;;;;7.07;3.50;;;;;;;;;;5052779;28;20373;-75
2023/10/13 13:34:14;;;;;;;9.05;4.15;;;;;;;;;;5053855;28;20290;-75
2023/10/13 13:36:44;;;;;;;6.75;3.08;;;;;;;;;;5053355;28;20111;-75
2023/10/13 13:39:10;;;;;;;11.18;3.78;;;;;;;;;;5051871;28;20124;-75
2023/10/13 13:41:36;;;;;;;10.20;3.80;;;;;;;;;;5054341;28;20029;-75
2023/10/13 13:44:13;;;;;;;8.43;3.60;;;;;;;;;;5053646;28;20032;-75
2023/10/13 13:46:42;;;;;;;9.35;3.10;;;;;;;;;;5053962;28;20016;-75
2023/10/13 13:49:17;;;;;;;9.00;3.15;;;;;;;;;;5053654;28;20028;-75
2023/10/13 13:51:43;;;;;;;11.10;3.80;;;;;;;;;;5052327;28;20029;-75
2023/10/13 13:54:11;;;;;;;9.32;3.53;;;;;;;;;;5051897;28;20035;-75
2023/10/13 13:56:39;;;;;;;12.52;3.38;;;;;;;;;;5053303;28;20025;-75
2023/10/13 13:59:08;;;;;;;9.90;3.38;;;;;;;;;;5052041;28;20108;-75
2023/10/13 14:01:37;;;;;;;8.82;3.08;;;;;;;;;;5053584;28;20025;-75
2023/10/13 14:04:02;;;;;;;15.43;3.30;;;;;;;;;;5051940;28;20162;-75
2023/10/13 14:06:29;;;;;;;8.88;3.75;;;;;;;;;;5053256;28;20049;-75
2023/10/13 14:08:56;;;;;;;7.32;3.22;;;;;;;;;;5053286;28;20024;-75
2023/10/13 14:14:12;;;;;;;7.80;3.53;;;;;;;;;;5053442;28;20033;-75
2023/10/13 14:16:44;;;;;;;13.13;3.00;;;;;;;;;;5053305;28;20031;-75
2023/10/13 14:19:11;;;;;;;11.40;3.25;;;;;;;;;;5053147;28;20092;-75
2023/10/13 14:21:36;;;;;;;10.73;3.30;;;;;;;;;;5053146;28;20071;-75
2023/10/13 14:24:02;;;;;;;11.68;3.28;;;;;;;;;;5052990;28;20024;-75
2023/10/13 14:26:28;;;;;;;8.35;3.65;;;;;;;;;;5051797;28;20090;-75
2023/10/13 14:29:08;;;;;;;8.68;3.30;;;;;;;;;;5053022;28;20484;-75
2023/10/13 14:31:36;;;;;;;6.70;3.45;;;;;;;;;;5053183;28;20532;-75
2023/10/13 14:34:01;;;;;;;11.30;3.55;;;;;;;;;;5051759;28;20035;-77
2023/10/13 14:36:34;;;;;;;8.13;3.60;;;;;;;;;;5053473;28;20025;-75
2023/10/13 14:38:59;;;;;;;14.30;3.53;;;;;;;;;;5052913;28;20025;-75
2023/10/13 14:41:25;;;;;;;15.50;3.72;;;;;;;;;;5051795;28;20484;-75
2023/10/13 14:43:51;;;;;;;8.07;3.25;;;;;;;;;;5052733;28;20055;-75
2023/10/13 14:46:23;;;;;;;14.32;3.92;;;;;;;;;;5051548;28;20395;-75
2023/10/13 14:48:52;;;;;;;7.82;3.38;;;;;;;;;;5053377;28;20048;-75
2023/10/13 14:51:17;;;;;;;11.63;4.00;;;;;;;;;;5052693;28;20029;-75
2023/10/13 14:53:47;;;;;;;11.93;3.30;;;;;;;;;;5052610;28;20044;-75
2023/10/13 14:56:13;;;;;;;9.32;3.60;;;;;;;;;;5053010;28;20021;-75
2023/10/13 14:58:42;;;;;;;13.05;3.97;;;;;;;;;;5052908;28;20035;-75
2023/10/13 15:01:17;;;;;;;11.68;3.50;;;;;;;;;;5052945;28;20052;-76
2023/10/13 15:03:43;;;;;;;7.15;3.25;;;;;;;;;;5052809;28;20403;-75
2023/10/13 15:06:28;;;;;;;10.98;3.70;;;;;;;;;;5052663;28;20025;-75
2023/10/13 15:08:55;;;;;;;13.73;3.88;;;;;;;;;;5052272;28;20161;-75
2023/10/13 15:11:21;;;;;;;11.45;3.38;;;;;;;;;;5052473;28;20024;-75
2023/10/13 15:13:50;;;;;;;7.45;3.60;;;;;;;;;;5052115;28;20100;-75
2023/10/13 15:16:21;;;;;;;9.93;3.63;;;;;;;;;;5052177;28;20028;-75
2023/10/13 15:18:52;;;;;;;13.70;3.72;;;;;;;;;;5052021;28;20029;-75
2023/10/13 15:21:40;;;;;;;10.25;3.72;;;;;;;;;;5052003;28;20454;-75
2023/10/13 15:24:21;;;;;;;11.88;3.60;;;;;;;;;;5050860;28;20016;-75
2023/10/13 15:26:48;;;;;;;13.45;4.00;;;;;;;;;;5052175;28;20021;-75
2023/10/13 15:29:25;;;;;;;12.50;3.50;;;;;;;;;;5051976;28;20035;-76
2023/10/13 15:34:27;;;;;;;12.90;3.60;;;;;;;;;;5052609;28;20028;-75
2023/10/13 15:36:55;;;;;;;13.70;3.80;;;;;;;;;;5052188;28;20029;-74
2023/10/13 15:39:24;;;;;;;10.25;3.67;;;;;;;;;;5052206;28;20032;-74
2023/10/13 15:41:58;;;;;;;11.45;3.67;;;;;;;;;;5052195;28;20029;-75
2023/10/13 15:44:24;;;;;;;10.68;3.10;;;;;;;;;;5050927;28;20024;-75
2023/10/13 15:46:54;;;;;;;18.73;3.30;;;;;;;;;;5052481;28;20021;-76
2023/10/13 15:49:19;;;;;;;8.77;2.85;;;;;;;;;;5052173;28;20021;-75
2023/10/13 15:51:45;;;;;;;7.45;3.15;;;;;;;;;;5052082;28;20025;-74
2023/10/13 15:54:20;;;;;;;8.48;3.58;;;;;;;;;;5051934;28;20071;-75
2023/10/13 15:56:48;;;;;;;12.40;3.42;;;;;;;;;;5052218;28;20021;-75
2023/10/13 15:59:14;;;;;;;10.05;3.40;;;;;;;;;;5052225;28;20024;-75
2023/10/13 16:01:40;;;;;;;7.05;3.53;;;;;;;;;;5054560;28;20094;-75
2023/10/13 16:04:13;;;;;;;10.48;3.35;;;;;;;;;;5054217;28;20415;-74
2023/10/13 16:06:46;;;;;;;12.82;3.53;;;;;;;;;;5055812;28;20025;-75
2023/10/13 16:09:15;;;;;;;11.93;3.27;;;;;;;;;;5055542;28;20036;-74
2023/10/13 16:11:42;;;;;;;13.80;3.80;;;;;;;;;;5055455;28;20838;-74
2023/10/13 16:14:10;;;;;;;11.63;3.90;;;;;;;;;;5055210;28;20072;-75
2023/10/13 16:16:36;;;;;;;7.85;3.25;;;;;;;;;;5053993;28;20053;-75
2023/10/13 16:19:05;;;;;;;10.85;3.72;;;;;;;;;;5055148;28;20028;-74
2023/10/13 16:21:30;;;;;;;11.18;3.40;;;;;;;;;;5055138;28;20021;-74
2023/10/13 16:23:56;;;;;;;10.00;3.40;;;;;;;;;;5054994;28;20104;-75
2023/10/13 16:26:25;;;;;;;8.65;3.53;;;;;;;;;;5055075;28;20048;-75
2023/10/13 16:28:57;;;;;;;11.38;4.00;;;;;;;;;;5055331;28;20070;-75
2023/10/13 16:31:23;;;;;;;12.88;3.42;;;;;;;;;;5055326;28;20055;-76
2023/10/13 16:33:48;;;;;;;11.27;3.60;;;;;;;;;;5054935;28;20073;-75
2023/10/13 16:36:14;;;;;;;11.15;4.03;;;;;;;;;;5055025;28;20043;-75
2023/10/13 16:38:39;;;;;;;10.50;3.85;;;;;;;;;;5053591;28;20021;-74
2023/10/13 16:41:09;;;;;;;9.93;3.35;;;;;;;;;;5053674;28;20040;-74
2023/10/13 16:43:35;;;;;;;10.02;4.07;;;;;;;;;;5055134;28;20025;-75
2023/10/13 16:46:11;;;;;;;8.57;3.92;;;;;;;;;;5054937;28;20025;-75
2023/10/13 16:48:37;;;;;;;9.55;3.47;;;;;;;;;;5055139;28;20021;-74
2023/10/13 16:51:05;;;;;;;11.02;3.85;;;;;;;;;;5053543;28;20545;-74
2023/10/13 16:53:30;;;;;;;12.70;3.60;;;;;;;;;;5054711;28;20039;-74
2023/10/13 16:55:58;;;;;;;7.60;3.03;;;;;;;;;;5054696;28;20021;-75
2023/10/13 16:58:23;;;;;;;10.48;3.25;;;;;;;;;;5053320;28;20135;-75
2023/10/13 17:00:51;;;;;;;10.20;3.45;;;;;;;;;;5054615;28;20528;-74
2023/10/13 17:03:25;;;;;;;6.90;3.15;;;;;;;;;;5053186;28;20442;-75
2023/10/13 17:05:50;;;;;;;11.07;3.97;;;;;;;;;;5055015;28;20107;-75
2023/10/13 17:08:18;;;;;;;9.23;3.42;;;;;;;;;;5052981;28;20119;-75
2023/10/13 17:10:43;;;;;;;11.10;4.05;;;;;;;;;;5053426;28;20051;-75
2023/10/13 17:13:08;;;;;;;10.98;3.45;;;;;;;;;;5054507;28;20021;-76
2023/10/13 17:15:35;;;;;;;13.15;4.57;;;;;;;;;;5054435;28;20032;-75
2023/10/13 17:18:05;;;;;;;12.18;3.38;;;;;;;;;;5052891;28;20039;-75
2023/10/13 17:20:37;;;;;;;10.32;3.42;;;;;;;;;;5054337;28;20021;-75
2023/10/13 17:23:06;;;;;;;11.20;3.25;;;;;;;;;;5054198;28;20102;-75
2023/10/13 17:25:32;;;;;;;10.88;3.78;;;;;;;;;;5054197;28;20032;-75
2023/10/13 17:27:58;;;;;;;12.73;5.20;;;;;;;;;;5054119;28;20027;-75
2023/10/13 17:30:23;;;;;;;7.32;3.65;;;;;;;;;;5054144;28;20029;-75
2023/10/13 17:32:48;;;;;;;8.10;3.63;;;;;;;;;;5054270;28;20017;-75
2023/10/13 17:35:13;;;;;;;13.15;3.42;;;;;;;;;;5053987;28;20250;-75
2023/10/13 17:37:42;;;;;;;9.73;3.95;;;;;;;;;;5053912;28;20028;-75
2023/10/13 17:40:18;;;;;;;10.00;3.25;;;;;;;;;;5053854;28;20056;-75
2023/10/13 17:42:47;;;;;;;7.45;3.30;;;;;;;;;;5053835;28;20021;-75